sensor_id;sensor_type;location;lat;lon;timestamp;P1;durP1;ratioP1;P2;durP2;ratioP2
12212;SDS011;6169;44.158;22.788;2023-03-05T00:03:44;47.97;;;21.10;;
12212;SDS011;6169;44.158;22.788;2023-03-05T00:08:48;43.43;;;22.00;;
12212;SDS011;6169;44.158;22.788;2023-03-05T00:13:52;42.10;;;21.73;;
12212;SDS011;6169;44.158;22.788;2023-03-05T00:18:55;51.77;;;23.00;;
12212;SDS011;6169;44.158;22.788;2023-03-05T00:24:01;39.50;;;20.40;;
12212;SDS011;6169;44.158;22.788;2023-03-05T00:29:05;43.10;;;21.87;;
12212;SDS011;6169;44.158;22.788;2023-03-05T00:34:11;46.73;;;21.67;;
12212;SDS011;6169;44.158;22.788;2023-03-05T00:39:16;47.70;;;22.67;;
12212;SDS011;6169;44.158;22.788;2023-03-05T00:44:19;43.97;;;23.10;;
12212;SDS011;6169;44.158;22.788;2023-03-05T00:49:22;45.70;;;21.93;;
12212;SDS011;6169;44.158;22.788;2023-03-05T00:54:26;41.10;;;21.80;;
12212;SDS011;6169;44.158;22.788;2023-03-05T00:59:28;40.63;;;20.10;;
12212;SDS011;6169;44.158;22.788;2023-03-05T01:04:30;50.83;;;23.67;;
12212;SDS011;6169;44.158;22.788;2023-03-05T01:09:34;47.20;;;21.63;;
12212;SDS011;6169;44.158;22.788;2023-03-05T01:14:36;50.73;;;22.40;;
12212;SDS011;6169;44.158;22.788;2023-03-05T01:19:39;39.40;;;21.10;;
12212;SDS011;6169;44.158;22.788;2023-03-05T01:24:42;43.23;;;20.80;;
12212;SDS011;6169;44.158;22.788;2023-03-05T01:29:45;39.30;;;21.73;;
12212;SDS011;6169;44.158;22.788;2023-03-05T01:34:47;50.20;;;21.80;;
12212;SDS011;6169;44.158;22.788;2023-03-05T01:39:51;44.47;;;19.20;;
12212;SDS011;6169;44.158;22.788;2023-03-05T01:45:00;43.47;;;20.83;;
12212;SDS011;6169;44.158;22.788;2023-03-05T01:50:07;42.60;;;21.30;;
12212;SDS011;6169;44.158;22.788;2023-03-05T01:55:14;44.67;;;23.13;;
12212;SDS011;6169;44.158;22.788;2023-03-05T02:00:21;49.23;;;21.97;;
12212;SDS011;6169;44.158;22.788;2023-03-05T02:05:29;43.23;;;22.03;;
12212;SDS011;6169;44.158;22.788;2023-03-05T02:10:35;38.10;;;20.70;;
12212;SDS011;6169;44.158;22.788;2023-03-05T02:15:39;40.90;;;20.33;;
12212;SDS011;6169;44.158;22.788;2023-03-05T02:20:43;42.40;;;21.37;;
12212;SDS011;6169;44.158;22.788;2023-03-05T02:25:49;41.17;;;22.03;;
12212;SDS011;6169;44.158;22.788;2023-03-05T02:30:51;40.00;;;20.47;;
12212;SDS011;6169;44.158;22.788;2023-03-05T02:35:54;44.00;;;22.43;;
12212;SDS011;6169;44.158;22.788;2023-03-05T02:40:57;38.60;;;21.93;;
12212;SDS011;6169;44.158;22.788;2023-03-05T02:46:00;39.00;;;19.97;;
12212;SDS011;6169;44.158;22.788;2023-03-05T02:51:02;47.67;;;21.40;;
12212;SDS011;6169;44.158;22.788;2023-03-05T02:56:09;61.83;;;26.07;;
12212;SDS011;6169;44.158;22.788;2023-03-05T03:01:11;42.67;;;21.00;;
12212;SDS011;6169;44.158;22.788;2023-03-05T03:06:13;50.23;;;22.07;;
12212;SDS011;6169;44.158;22.788;2023-03-05T03:11:17;43.23;;;22.20;;
12212;SDS011;6169;44.158;22.788;2023-03-05T03:16:20;42.20;;;23.80;;
12212;SDS011;6169;44.158;22.788;2023-03-05T03:21:23;41.77;;;21.07;;
12212;SDS011;6169;44.158;22.788;2023-03-05T03:26:27;47.90;;;22.63;;
12212;SDS011;6169;44.158;22.788;2023-03-05T03:31:31;45.47;;;23.57;;
12212;SDS011;6169;44.158;22.788;2023-03-05T03:36:34;42.30;;;22.40;;
12212;SDS011;6169;44.158;22.788;2023-03-05T03:41:39;41.40;;;23.00;;
12212;SDS011;6169;44.158;22.788;2023-03-05T03:46:43;49.10;;;23.33;;
12212;SDS011;6169;44.158;22.788;2023-03-05T03:51:47;48.20;;;23.77;;
12212;SDS011;6169;44.158;22.788;2023-03-05T03:56:52;52.13;;;23.07;;
12212;SDS011;6169;44.158;22.788;2023-03-05T04:01:54;45.00;;;22.77;;
12212;SDS011;6169;44.158;22.788;2023-03-05T04:06:57;47.47;;;23.97;;
12212;SDS011;6169;44.158;22.788;2023-03-05T04:12:00;46.23;;;23.77;;
12212;SDS011;6169;44.158;22.788;2023-03-05T04:17:03;45.77;;;25.33;;
12212;SDS011;6169;44.158;22.788;2023-03-05T04:22:05;40.67;;;22.17;;
12212;SDS011;6169;44.158;22.788;2023-03-05T04:27:09;50.63;;;24.13;;
12212;SDS011;6169;44.158;22.788;2023-03-05T04:32:11;45.37;;;24.70;;
12212;SDS011;6169;44.158;22.788;2023-03-05T04:37:14;43.40;;;23.07;;
12212;SDS011;6169;44.158;22.788;2023-03-05T04:42:18;47.43;;;24.27;;
12212;SDS011;6169;44.158;22.788;2023-03-05T04:47:20;43.93;;;22.47;;
12212;SDS011;6169;44.158;22.788;2023-03-05T04:52:23;43.93;;;22.27;;
12212;SDS011;6169;44.158;22.788;2023-03-05T04:57:26;46.47;;;24.60;;
12212;SDS011;6169;44.158;22.788;2023-03-05T05:02:29;39.80;;;20.90;;
12212;SDS011;6169;44.158;22.788;2023-03-05T05:07:31;50.40;;;25.73;;
12212;SDS011;6169;44.158;22.788;2023-03-05T05:12:35;48.80;;;26.97;;
12212;SDS011;6169;44.158;22.788;2023-03-05T05:17:37;51.40;;;25.53;;
12212;SDS011;6169;44.158;22.788;2023-03-05T05:22:39;45.80;;;24.23;;
12212;SDS011;6169;44.158;22.788;2023-03-05T05:27:43;48.43;;;26.07;;
12212;SDS011;6169;44.158;22.788;2023-03-05T05:32:46;51.73;;;25.10;;
12212;SDS011;6169;44.158;22.788;2023-03-05T05:37:48;46.43;;;23.17;;
12212;SDS011;6169;44.158;22.788;2023-03-05T05:42:52;42.47;;;25.27;;
12212;SDS011;6169;44.158;22.788;2023-03-05T05:47:54;48.83;;;24.07;;
12212;SDS011;6169;44.158;22.788;2023-03-05T05:52:57;48.20;;;23.63;;
12212;SDS011;6169;44.158;22.788;2023-03-05T05:58:01;47.17;;;24.17;;
12212;SDS011;6169;44.158;22.788;2023-03-05T06:03:03;38.97;;;23.77;;
12212;SDS011;6169;44.158;22.788;2023-03-05T06:08:05;51.00;;;24.43;;
12212;SDS011;6169;44.158;22.788;2023-03-05T06:13:09;41.90;;;21.93;;
12212;SDS011;6169;44.158;22.788;2023-03-05T06:18:12;35.70;;;18.60;;
12212;SDS011;6169;44.158;22.788;2023-03-05T06:23:14;38.97;;;20.73;;
12212;SDS011;6169;44.158;22.788;2023-03-05T06:28:18;35.33;;;18.43;;
12212;SDS011;6169;44.158;22.788;2023-03-05T06:33:21;27.40;;;15.50;;
12212;SDS011;6169;44.158;22.788;2023-03-05T06:38:24;25.37;;;14.90;;
12212;SDS011;6169;44.158;22.788;2023-03-05T06:43:28;28.50;;;16.37;;
12212;SDS011;6169;44.158;22.788;2023-03-05T06:48:32;26.20;;;13.97;;
12212;SDS011;6169;44.158;22.788;2023-03-05T06:53:35;28.80;;;15.13;;
12212;SDS011;6169;44.158;22.788;2023-03-05T06:58:39;24.73;;;14.63;;
12212;SDS011;6169;44.158;22.788;2023-03-05T07:03:42;22.13;;;12.20;;
12212;SDS011;6169;44.158;22.788;2023-03-05T07:08:44;26.57;;;13.03;;
12212;SDS011;6169;44.158;22.788;2023-03-05T07:13:48;22.73;;;13.00;;
12212;SDS011;6169;44.158;22.788;2023-03-05T07:18:51;25.40;;;14.53;;
12212;SDS011;6169;44.158;22.788;2023-03-05T07:23:55;23.30;;;13.20;;
12212;SDS011;6169;44.158;22.788;2023-03-05T07:28:59;22.30;;;11.37;;
12212;SDS011;6169;44.158;22.788;2023-03-05T07:34:03;18.45;;;10.90;;
12212;SDS011;6169;44.158;22.788;2023-03-05T07:39:05;19.27;;;11.55;;
12212;SDS011;6169;44.158;22.788;2023-03-05T07:44:09;15.10;;;9.77;;
12212;SDS011;6169;44.158;22.788;2023-03-05T07:49:11;23.60;;;13.30;;
12212;SDS011;6169;44.158;22.788;2023-03-05T07:54:14;18.88;;;10.13;;
12212;SDS011;6169;44.158;22.788;2023-03-05T07:59:18;14.38;;;9.32;;
12212;SDS011;6169;44.158;22.788;2023-03-05T08:04:20;30.38;;;17.02;;
12212;SDS011;6169;44.158;22.788;2023-03-05T08:09:22;19.05;;;10.48;;
12212;SDS011;6169;44.158;22.788;2023-03-05T08:14:26;19.20;;;11.02;;
12212;SDS011;6169;44.158;22.788;2023-03-05T08:19:29;16.30;;;9.05;;
12212;SDS011;6169;44.158;22.788;2023-03-05T08:24:31;17.42;;;10.55;;
12212;SDS011;6169;44.158;22.788;2023-03-05T08:29:35;21.27;;;10.63;;
12212;SDS011;6169;44.158;22.788;2023-03-05T08:34:37;17.50;;;12.50;;
12212;SDS011;6169;44.158;22.788;2023-03-05T08:39:40;19.45;;;11.85;;
12212;SDS011;6169;44.158;22.788;2023-03-05T08:44:43;23.33;;;14.98;;
12212;SDS011;6169;44.158;22.788;2023-03-05T08:49:46;22.13;;;12.07;;
12212;SDS011;6169;44.158;22.788;2023-03-05T08:54:48;19.45;;;9.85;;
12212;SDS011;6169;44.158;22.788;2023-03-05T08:59:52;16.17;;;9.98;;
12212;SDS011;6169;44.158;22.788;2023-03-05T09:04:55;16.23;;;9.05;;
12212;SDS011;6169;44.158;22.788;2023-03-05T09:09:57;20.40;;;13.07;;
12212;SDS011;6169;44.158;22.788;2023-03-05T09:15:01;18.60;;;11.90;;
12212;SDS011;6169;44.158;22.788;2023-03-05T09:20:04;16.13;;;8.95;;
12212;SDS011;6169;44.158;22.788;2023-03-05T09:25:08;16.30;;;10.75;;
12212;SDS011;6169;44.158;22.788;2023-03-05T09:30:14;16.20;;;11.13;;
12212;SDS011;6169;44.158;22.788;2023-03-05T09:35:17;14.25;;;10.05;;
12212;SDS011;6169;44.158;22.788;2023-03-05T09:40:19;18.50;;;10.45;;
12212;SDS011;6169;44.158;22.788;2023-03-05T09:45:25;15.50;;;10.82;;
12212;SDS011;6169;44.158;22.788;2023-03-05T09:50:32;13.27;;;9.15;;
12212;SDS011;6169;44.158;22.788;2023-03-05T09:55:38;18.25;;;9.43;;
12212;SDS011;6169;44.158;22.788;2023-03-05T10:00:46;17.45;;;10.48;;
12212;SDS011;6169;44.158;22.788;2023-03-05T10:11:22;16.35;;;9.05;;
12212;SDS011;6169;44.158;22.788;2023-03-05T10:16:43;13.65;;;8.43;;
12212;SDS011;6169;44.158;22.788;2023-03-05T10:22:00;16.97;;;8.70;;
12212;SDS011;6169;44.158;22.788;2023-03-05T10:27:15;11.32;;;7.47;;
12212;SDS011;6169;44.158;22.788;2023-03-05T10:32:25;10.73;;;6.78;;
12212;SDS011;6169;44.158;22.788;2023-03-05T10:37:47;11.23;;;7.15;;
12212;SDS011;6169;44.158;22.788;2023-03-05T10:43:01;8.25;;;6.72;;
12212;SDS011;6169;44.158;22.788;2023-03-05T10:48:14;11.27;;;6.97;;
12212;SDS011;6169;44.158;22.788;2023-03-05T10:53:24;8.95;;;5.55;;
12212;SDS011;6169;44.158;22.788;2023-03-05T10:58:29;7.93;;;5.88;;
12212;SDS011;6169;44.158;22.788;2023-03-05T11:03:46;9.38;;;6.50;;
12212;SDS011;6169;44.158;22.788;2023-03-05T11:08:51;13.02;;;6.35;;
12212;SDS011;6169;44.158;22.788;2023-03-05T11:13:54;11.02;;;6.18;;
12212;SDS011;6169;44.158;22.788;2023-03-05T11:19:14;9.20;;;5.55;;
12212;SDS011;6169;44.158;22.788;2023-03-05T11:24:18;8.68;;;6.72;;
12212;SDS011;6169;44.158;22.788;2023-03-05T11:29:22;13.23;;;8.85;;
12212;SDS011;6169;44.158;22.788;2023-03-05T11:34:30;9.98;;;6.60;;
12212;SDS011;6169;44.158;22.788;2023-03-05T11:39:35;18.55;;;7.32;;
12212;SDS011;6169;44.158;22.788;2023-03-05T11:44:41;10.50;;;6.22;;
12212;SDS011;6169;44.158;22.788;2023-03-05T11:49:50;10.35;;;6.70;;
12212;SDS011;6169;44.158;22.788;2023-03-05T11:54:58;9.10;;;6.90;;
12212;SDS011;6169;44.158;22.788;2023-03-05T12:00:05;11.00;;;7.38;;
12212;SDS011;6169;44.158;22.788;2023-03-05T12:05:15;9.83;;;6.53;;
12212;SDS011;6169;44.158;22.788;2023-03-05T12:10:20;9.05;;;7.00;;
12212;SDS011;6169;44.158;22.788;2023-03-05T12:15:27;9.68;;;7.65;;
12212;SDS011;6169;44.158;22.788;2023-03-05T12:20:43;9.13;;;6.30;;
12212;SDS011;6169;44.158;22.788;2023-03-05T12:25:54;12.90;;;7.05;;
12212;SDS011;6169;44.158;22.788;2023-03-05T12:30:59;11.00;;;7.25;;
12212;SDS011;6169;44.158;22.788;2023-03-05T12:41:38;10.32;;;6.75;;
12212;SDS011;6169;44.158;22.788;2023-03-05T12:46:40;10.10;;;7.82;;
12212;SDS011;6169;44.158;22.788;2023-03-05T12:51:45;14.38;;;7.60;;
12212;SDS011;6169;44.158;22.788;2023-03-05T12:56:49;13.40;;;7.05;;
12212;SDS011;6169;44.158;22.788;2023-03-05T13:01:53;9.27;;;6.28;;
12212;SDS011;6169;44.158;22.788;2023-03-05T13:07:00;10.63;;;6.70;;
12212;SDS011;6169;44.158;22.788;2023-03-05T13:12:09;12.85;;;7.57;;
12212;SDS011;6169;44.158;22.788;2023-03-05T13:17:24;11.67;;;7.53;;
12212;SDS011;6169;44.158;22.788;2023-03-05T13:22:30;10.45;;;6.57;;
12212;SDS011;6169;44.158;22.788;2023-03-05T13:27:33;15.77;;;8.80;;
12212;SDS011;6169;44.158;22.788;2023-03-05T13:32:35;9.65;;;5.60;;
12212;SDS011;6169;44.158;22.788;2023-03-05T13:37:39;8.60;;;5.70;;
12212;SDS011;6169;44.158;22.788;2023-03-05T13:42:44;11.25;;;7.75;;
12212;SDS011;6169;44.158;22.788;2023-03-05T13:47:50;12.45;;;7.75;;
12212;SDS011;6169;44.158;22.788;2023-03-05T13:52:59;9.90;;;7.05;;
12212;SDS011;6169;44.158;22.788;2023-03-05T14:03:47;9.40;;;5.28;;
12212;SDS011;6169;44.158;22.788;2023-03-05T14:08:53;8.00;;;5.40;;
12212;SDS011;6169;44.158;22.788;2023-03-05T14:14:01;13.15;;;7.22;;
12212;SDS011;6169;44.158;22.788;2023-03-05T14:19:25;14.15;;;7.93;;
12212;SDS011;6169;44.158;22.788;2023-03-05T14:24:35;9.15;;;6.45;;
12212;SDS011;6169;44.158;22.788;2023-03-05T14:29:42;11.35;;;5.53;;
12212;SDS011;6169;44.158;22.788;2023-03-05T14:34:47;11.30;;;7.60;;
12212;SDS011;6169;44.158;22.788;2023-03-05T14:39:55;9.35;;;5.80;;
12212;SDS011;6169;44.158;22.788;2023-03-05T14:44:59;11.70;;;6.57;;
12212;SDS011;6169;44.158;22.788;2023-03-05T14:50:10;11.27;;;7.00;;
12212;SDS011;6169;44.158;22.788;2023-03-05T14:55:19;9.57;;;5.82;;
12212;SDS011;6169;44.158;22.788;2023-03-05T15:00:24;10.27;;;5.88;;
12212;SDS011;6169;44.158;22.788;2023-03-05T15:05:27;11.90;;;7.05;;
12212;SDS011;6169;44.158;22.788;2023-03-05T15:10:31;12.60;;;6.10;;
12212;SDS011;6169;44.158;22.788;2023-03-05T15:15:34;12.15;;;7.13;;
12212;SDS011;6169;44.158;22.788;2023-03-05T15:20:36;16.23;;;9.10;;
12212;SDS011;6169;44.158;22.788;2023-03-05T15:25:41;16.58;;;9.30;;
12212;SDS011;6169;44.158;22.788;2023-03-05T15:30:44;15.15;;;9.98;;
12212;SDS011;6169;44.158;22.788;2023-03-05T15:35:47;13.60;;;9.10;;
12212;SDS011;6169;44.158;22.788;2023-03-05T15:40:51;14.52;;;9.35;;
12212;SDS011;6169;44.158;22.788;2023-03-05T15:45:54;13.80;;;7.75;;
12212;SDS011;6169;44.158;22.788;2023-03-05T15:50:56;54.90;;;23.92;;
12212;SDS011;6169;44.158;22.788;2023-03-05T15:56:00;49.60;;;28.00;;
12212;SDS011;6169;44.158;22.788;2023-03-05T16:01:02;12.18;;;9.38;;
12212;SDS011;6169;44.158;22.788;2023-03-05T16:06:05;11.90;;;6.95;;
12212;SDS011;6169;44.158;22.788;2023-03-05T16:11:11;17.63;;;10.50;;
12212;SDS011;6169;44.158;22.788;2023-03-05T16:16:13;22.13;;;9.82;;
12212;SDS011;6169;44.158;22.788;2023-03-05T16:21:16;14.82;;;8.82;;
12212;SDS011;6169;44.158;22.788;2023-03-05T16:26:20;10.50;;;6.50;;
12212;SDS011;6169;44.158;22.788;2023-03-05T16:31:23;11.65;;;6.63;;
12212;SDS011;6169;44.158;22.788;2023-03-05T16:36:30;20.13;;;9.30;;
12212;SDS011;6169;44.158;22.788;2023-03-05T16:41:36;31.05;;;26.33;;
12212;SDS011;6169;44.158;22.788;2023-03-05T16:46:38;13.07;;;6.95;;
12212;SDS011;6169;44.158;22.788;2023-03-05T16:51:43;9.50;;;5.93;;
12212;SDS011;6169;44.158;22.788;2023-03-05T16:56:47;13.27;;;8.48;;
12212;SDS011;6169;44.158;22.788;2023-03-05T17:01:49;17.52;;;9.07;;
12212;SDS011;6169;44.158;22.788;2023-03-05T17:06:52;12.85;;;7.75;;
12212;SDS011;6169;44.158;22.788;2023-03-05T17:11:56;60.93;;;32.10;;
12212;SDS011;6169;44.158;22.788;2023-03-05T17:16:59;17.17;;;9.23;;
12212;SDS011;6169;44.158;22.788;2023-03-05T17:22:03;59.60;;;29.37;;
12212;SDS011;6169;44.158;22.788;2023-03-05T17:27:08;23.50;;;12.63;;
12212;SDS011;6169;44.158;22.788;2023-03-05T17:32:12;17.93;;;10.50;;
12212;SDS011;6169;44.158;22.788;2023-03-05T17:37:16;12.70;;;9.10;;
12212;SDS011;6169;44.158;22.788;2023-03-05T17:42:20;21.33;;;9.63;;
12212;SDS011;6169;44.158;22.788;2023-03-05T17:47:23;18.37;;;10.57;;
12212;SDS011;6169;44.158;22.788;2023-03-05T17:52:26;12.83;;;7.83;;
12212;SDS011;6169;44.158;22.788;2023-03-05T17:57:31;14.40;;;8.27;;
12212;SDS011;6169;44.158;22.788;2023-03-05T18:02:34;26.27;;;12.67;;
12212;SDS011;6169;44.158;22.788;2023-03-05T18:07:37;12.50;;;7.27;;
12212;SDS011;6169;44.158;22.788;2023-03-05T18:12:42;11.93;;;6.90;;
12212;SDS011;6169;44.158;22.788;2023-03-05T18:17:44;11.67;;;8.43;;
12212;SDS011;6169;44.158;22.788;2023-03-05T18:22:47;10.37;;;6.60;;
12212;SDS011;6169;44.158;22.788;2023-03-05T18:27:51;9.50;;;6.10;;
12212;SDS011;6169;44.158;22.788;2023-03-05T18:32:54;11.30;;;7.00;;
12212;SDS011;6169;44.158;22.788;2023-03-05T18:37:57;13.53;;;8.30;;
12212;SDS011;6169;44.158;22.788;2023-03-05T18:43:02;9.20;;;6.90;;
12212;SDS011;6169;44.158;22.788;2023-03-05T18:48:05;10.70;;;7.97;;
12212;SDS011;6169;44.158;22.788;2023-03-05T18:53:09;12.17;;;7.23;;
12212;SDS011;6169;44.158;22.788;2023-03-05T18:58:15;19.37;;;9.83;;
12212;SDS011;6169;44.158;22.788;2023-03-05T19:03:19;13.47;;;8.80;;
12212;SDS011;6169;44.158;22.788;2023-03-05T19:08:22;8.80;;;5.50;;
12212;SDS011;6169;44.158;22.788;2023-03-05T19:13:37;12.60;;;7.07;;
12212;SDS011;6169;44.158;22.788;2023-03-05T19:18:45;12.73;;;6.33;;
12212;SDS011;6169;44.158;22.788;2023-03-05T19:24:04;12.07;;;7.67;;
12212;SDS011;6169;44.158;22.788;2023-03-05T19:29:08;9.53;;;5.10;;
12212;SDS011;6169;44.158;22.788;2023-03-05T19:34:12;15.23;;;8.50;;
12212;SDS011;6169;44.158;22.788;2023-03-05T19:39:15;14.30;;;7.50;;
12212;SDS011;6169;44.158;22.788;2023-03-05T19:44:20;10.43;;;6.37;;
12212;SDS011;6169;44.158;22.788;2023-03-05T19:49:24;12.97;;;7.43;;
12212;SDS011;6169;44.158;22.788;2023-03-05T19:54:27;11.53;;;6.80;;
12212;SDS011;6169;44.158;22.788;2023-03-05T19:59:31;10.17;;;6.60;;
12212;SDS011;6169;44.158;22.788;2023-03-05T20:04:34;8.27;;;6.00;;
12212;SDS011;6169;44.158;22.788;2023-03-05T20:09:37;7.83;;;5.53;;
12212;SDS011;6169;44.158;22.788;2023-03-05T20:14:41;7.43;;;5.90;;
12212;SDS011;6169;44.158;22.788;2023-03-05T20:19:44;12.83;;;6.77;;
12212;SDS011;6169;44.158;22.788;2023-03-05T20:24:47;16.13;;;7.50;;
12212;SDS011;6169;44.158;22.788;2023-03-05T20:29:52;10.57;;;5.63;;
12212;SDS011;6169;44.158;22.788;2023-03-05T20:34:54;8.23;;;5.50;;
12212;SDS011;6169;44.158;22.788;2023-03-05T20:39:57;10.87;;;6.50;;
12212;SDS011;6169;44.158;22.788;2023-03-05T20:45:01;37.07;;;15.97;;
12212;SDS011;6169;44.158;22.788;2023-03-05T20:50:04;11.93;;;6.70;;
12212;SDS011;6169;44.158;22.788;2023-03-05T20:55:09;15.03;;;7.67;;
12212;SDS011;6169;44.158;22.788;2023-03-05T21:00:15;10.13;;;5.97;;
12212;SDS011;6169;44.158;22.788;2023-03-05T21:05:18;16.53;;;9.47;;
12212;SDS011;6169;44.158;22.788;2023-03-05T21:10:21;18.43;;;11.83;;
12212;SDS011;6169;44.158;22.788;2023-03-05T21:15:27;12.77;;;7.50;;
12212;SDS011;6169;44.158;22.788;2023-03-05T21:20:32;8.07;;;5.40;;
12212;SDS011;6169;44.158;22.788;2023-03-05T21:25:34;8.30;;;5.40;;
12212;SDS011;6169;44.158;22.788;2023-03-05T21:30:39;11.53;;;6.03;;
12212;SDS011;6169;44.158;22.788;2023-03-05T21:35:44;16.10;;;8.33;;
12212;SDS011;6169;44.158;22.788;2023-03-05T21:40:46;10.57;;;5.47;;
12212;SDS011;6169;44.158;22.788;2023-03-05T21:45:51;12.20;;;6.87;;
12212;SDS011;6169;44.158;22.788;2023-03-05T21:50:56;11.17;;;5.00;;
12212;SDS011;6169;44.158;22.788;2023-03-05T21:56:18;14.23;;;7.30;;
12212;SDS011;6169;44.158;22.788;2023-03-05T22:01:25;12.23;;;5.63;;
12212;SDS011;6169;44.158;22.788;2023-03-05T22:06:28;11.30;;;6.37;;
12212;SDS011;6169;44.158;22.788;2023-03-05T22:11:30;23.20;;;9.43;;
12212;SDS011;6169;44.158;22.788;2023-03-05T22:16:34;16.67;;;8.43;;
12212;SDS011;6169;44.158;22.788;2023-03-05T22:21:37;13.53;;;7.03;;
12212;SDS011;6169;44.158;22.788;2023-03-05T22:26:39;13.77;;;7.67;;
12212;SDS011;6169;44.158;22.788;2023-03-05T22:31:44;8.97;;;6.67;;
12212;SDS011;6169;44.158;22.788;2023-03-05T22:36:46;15.10;;;9.87;;
12212;SDS011;6169;44.158;22.788;2023-03-05T22:41:49;14.53;;;7.07;;
12212;SDS011;6169;44.158;22.788;2023-03-05T22:46:52;8.77;;;5.33;;
12212;SDS011;6169;44.158;22.788;2023-03-05T22:51:55;9.97;;;5.17;;
12212;SDS011;6169;44.158;22.788;2023-03-05T22:56:57;9.93;;;5.00;;
12212;SDS011;6169;44.158;22.788;2023-03-05T23:02:01;6.47;;;5.27;;
12212;SDS011;6169;44.158;22.788;2023-03-05T23:07:03;8.57;;;6.10;;
12212;SDS011;6169;44.158;22.788;2023-03-05T23:12:06;7.37;;;4.33;;
12212;SDS011;6169;44.158;22.788;2023-03-05T23:17:11;8.73;;;5.73;;
12212;SDS011;6169;44.158;22.788;2023-03-05T23:22:13;6.80;;;4.23;;
12212;SDS011;6169;44.158;22.788;2023-03-05T23:27:16;9.70;;;4.63;;
12212;SDS011;6169;44.158;22.788;2023-03-05T23:32:20;6.07;;;4.07;;
12212;SDS011;6169;44.158;22.788;2023-03-05T23:37:22;8.00;;;5.30;;
12212;SDS011;6169;44.158;22.788;2023-03-05T23:42:25;8.40;;;4.87;;
12212;SDS011;6169;44.158;22.788;2023-03-05T23:47:28;11.03;;;6.00;;
12212;SDS011;6169;44.158;22.788;2023-03-05T23:52:31;10.30;;;6.13;;
12212;SDS011;6169;44.158;22.788;2023-03-05T23:57:33;12.57;;;7.70;;
